Latest Weather Observations for Middle Point

IDD60801

Issued at 2:05 pm CST Friday 21 November 2014 (issued every 30 minutes, with the page automatically refreshed every 10 minutes)

About weather observations | Map of weather stations | Latest weather observations for NT | Other Formats
Station Details ID: 014041 Name: MIDDLE POINT Lat: -12.61 Lon: 131.30 Height: 14.1 m
Data from the previous 72 hours. | See also: Recent months at Middle Point
Date/Time
CST
Temp
°C
App
Temp
°C
Dew
Point
Rel
Hum
%
Delta-T
°C
Wind Press
QNH
hPa
Press
MSL
hPa
Rain
since 9 am
mm
Dir
 
Spd
km/h
Gust
km/h
Spd
kts
Gust
kts
21/02:00pm 36.6 37.1 21.2 40 10.5 N 20 28 11 15 1008.0 1007.9 0.0
21/01:30pm 36.7 38.0 20.1 38 11.2 N 13 28 7 15 1008.4 1008.3 0.0
21/01:00pm 37.0 38.5 21.2 40 10.8 N 15 22 8 12 1008.9 1008.8 0.0
21/12:30pm 37.4 38.9 19.8 35 11.8 SE 11 19 6 10 1009.3 1009.2 0.0
21/12:00pm 35.8 37.1 20.1 40 10.5 NNE 13 20 7 11 1009.9 1009.8 0.0
21/11:30am 34.6 37.8 21.6 46 8.9 N 7 17 4 9 1010.6 1010.5 0.0
21/11:00am 34.1 37.8 20.8 45 8.9 N 2 6 1 3 1011.0 1010.8 0.0
21/10:30am 33.4 36.5 21.5 49 8.1 N 7 13 4 7 1011.4 1011.2 0.0
21/10:00am 33.7 37.2 21.8 49 8.1 NNE 6 11 3 6 1011.7 1011.5 0.0
21/09:30am 32.6 37.1 23.0 57 6.6 W 4 9 2 5 1011.9 1011.7 0.0
21/09:00am 30.9 35.0 22.2 59 5.9 N 4 7 2 4 1012.0 1011.8 0.0
21/08:30am 30.6 36.2 23.5 66 4.9 CALM 0 4 0 2 1011.9 1011.7 0.0
21/08:00am 28.9 34.5 23.6 73 3.6 CALM 0 0 0 0 1011.8 1011.6 0.0
21/07:30am 27.5 33.3 23.9 81 2.5 CALM 0 0 0 0 1011.6 1011.4 0.0
21/07:00am 26.3 31.7 23.8 86 1.7 SE 2 4 1 2 1011.3 1011.1 0.0
21/06:30am 25.7 31.3 23.6 88 1.4 CALM 0 0 0 0 1010.7 1010.6 0.0
21/06:00am 24.8 30.0 22.9 89 1.3 CALM 0 0 0 0 1010.3 1010.2 0.0
21/05:30am 24.1 28.7 21.8 87 1.5 CALM 0 0 0 0 1010.1 1010.0 0.0
21/05:00am 24.9 30.1 22.8 88 1.4 CALM 0 0 0 0 1009.9 1009.8 0.0
21/04:30am 24.6 29.2 22.5 88 1.4 NNW 2 4 1 2 1009.5 1009.4 0.0
21/04:00am 24.3 28.1 21.6 85 1.8 N 4 4 2 2 1009.3 1009.2 0.0
21/03:30am 25.3 29.7 22.8 86 1.7 NNW 4 4 2 2 1009.4 1009.3 0.0
21/03:00am 25.4 29.7 22.7 85 1.8 WNW 4 4 2 2 1009.2 1009.1 0.0
21/02:30am 25.3 29.0 22.6 85 1.8 WNW 7 11 4 6 1009.4 1009.3 0.0
21/02:00am 26.2 30.5 23.3 84 2.0 N 6 6 3 3 1009.7 1009.6 0.0
21/01:30am 25.9 30.5 23.2 85 1.8 NNE 4 6 2 3 1009.7 1009.6 0.0
21/01:00am 25.4 30.1 21.9 81 2.3 CALM 0 0 0 0 1009.6 1009.5 0.0
21/12:30am 26.3 31.0 22.6 80 2.5 N 2 4 1 2 1009.6 1009.5 0.0
21/12:00am 26.3 30.2 22.6 80 2.5 N 6 6 3 3 1009.7 1009.6 0.0
 
Date/Time
CST
Temp
°C
App
Temp
°C
Dew
Point
Rel
Hum
%
Delta-T
°C
Wind Press
QNH
hPa
Press
MSL
hPa
Rain
since 9 am
mm
Dir
 
Spd
km/h
Gust
km/h
Spd
kts
Gust
kts
20/11:30pm 26.0 29.4 21.7 77 2.9 NW 6 7 3 4 1009.7 1009.6 0.0
20/11:00pm 26.8 30.2 22.0 75 3.2 N 7 9 4 5 1009.8 1009.7 0.0
20/10:30pm 27.3 30.1 21.6 71 3.8 N 9 11 5 6 1009.8 1009.7 0.0
20/10:00pm 27.2 30.2 20.8 68 4.2 N 6 7 3 4 1009.7 1009.6 0.0
20/09:30pm 27.6 30.4 20.4 65 4.7 N 6 6 3 3 1009.5 1009.4 0.0
20/09:00pm 27.7 30.3 20.0 63 5.0 NNW 6 6 3 3 1009.4 1009.3 0.0
20/08:30pm 28.2 30.7 20.2 62 5.3 N 7 9 4 5 1008.9 1008.8 0.0
20/08:00pm 29.2 31.5 19.8 57 6.2 NW 7 9 4 5 1008.7 1008.6 0.0
20/07:30pm 29.4 31.6 19.7 56 6.4 NW 7 11 4 6 1008.2 1008.1 0.0
20/07:00pm 31.1 32.1 19.4 49 7.7 N 13 19 7 10 1007.5 1007.4 0.0
20/06:30pm 32.4 32.6 19.3 46 8.6 N 17 24 9 13 1007.1 1007.0 0.0
20/06:00pm 33.6 34.0 18.1 39 10.1 N 13 20 7 11 1006.8 1006.7 0.0
20/05:30pm 35.3 34.1 17.5 34 11.5 N 20 26 11 14 1006.6 1006.5 0.0
20/05:00pm 36.5 35.9 17.6 32 12.3 N 17 26 9 14 1006.4 1006.3 0.0
20/04:30pm 36.7 36.2 17.8 32 12.3 N 17 28 9 15 1006.5 1006.4 0.0
20/04:00pm 37.8 38.0 17.7 30 13.1 N 13 26 7 14 1006.7 1006.6 0.0
20/03:30pm 37.0 36.4 17.6 32 12.6 NNE 17 30 9 16 1007.0 1006.9 0.0
20/03:00pm 36.7 36.2 17.8 32 12.3 N 17 26 9 14 1007.3 1007.2 0.0
20/02:30pm 36.4 37.0 19.4 37 11.3 N 15 22 8 12 1007.7 1007.6 0.0
20/02:00pm 36.6 36.9 20.4 38 10.9 NNW 19 26 10 14 1008.1 1008.0 0.0
20/01:30pm 35.6 36.0 19.1 38 10.9 N 15 26 8 14 1008.6 1008.5 0.0
20/01:00pm 37.4 37.9 18.4 32 12.5 NNE 13 20 7 11 1009.1 1009.0 0.0
20/12:30pm 37.2 37.3 15.6 27 13.7 NE 9 19 5 10 1009.7 1009.6 0.0
20/12:00pm 36.8 38.3 19.7 36 11.4 NNW 11 20 6 11 1010.3 1010.2 0.0
20/11:30am 35.9 38.2 19.8 39 10.7 E 7 17 4 9 1011.0 1010.8 0.0
20/11:00am 34.1 36.5 19.7 42 9.5 NNE 6 13 3 7 1011.6 1011.4 0.0
20/10:30am 33.3 35.8 21.1 48 8.2 NNW 9 19 5 10 1011.9 1011.7 0.0
20/10:00am 33.1 36.5 21.6 51 7.8 NNW 6 11 3 6 1012.0 1011.8 0.0
20/09:30am 32.4 35.7 21.9 54 7.1 W 7 15 4 8 1012.2 1012.0 0.0
20/09:00am 30.9 34.8 22.5 61 5.7 N 6 11 3 6 1012.3 1012.1 0.0
20/08:30am 30.3 33.8 22.2 62 5.5 NNE 7 11 4 6 1012.1 1011.9 0.0
20/08:00am 29.5 34.1 22.5 66 4.8 E 2 6 1 3 1011.8 1011.6 0.0
20/07:30am 27.4 31.7 22.6 75 3.3 E 4 6 2 3 1011.4 1011.2 0.0
20/07:00am 23.7 28.2 21.6 88 1.4 CALM 0 0 0 0 1011.0 1010.8 0.0
20/06:30am 22.4 26.3 20.3 88 1.4 CALM 0 0 0 0 1010.5 1010.4 0.0
20/06:00am 22.7 26.8 20.8 89 1.2 CALM 0 0 0 0 1010.1 1010.0 0.0
20/05:30am 22.5 26.4 20.4 88 1.4 CALM 0 0 0 0 1009.8 1009.7 0.0
20/05:00am 22.9 26.7 20.1 84 1.8 CALM 0 0 0 0 1009.7 1009.6 0.0
20/04:30am 23.7 27.6 20.4 82 2.1 CALM 0 2 0 1 1009.7 1009.6 0.0
20/04:00am 24.4 28.1 20.7 80 2.4 S 2 4 1 2 1009.3 1009.2 0.0
20/03:30am 24.4 28.2 20.9 81 2.3 S 2 2 1 1 1009.2 1009.1 0.0
20/03:00am 24.4 27.4 20.9 81 2.3 SSW 6 7 3 4 1009.3 1009.2 0.0
20/02:30am 24.4 27.2 20.9 81 2.3 SW 7 7 4 4 1009.4 1009.3 0.0
20/02:00am 24.2 27.6 21.7 86 1.7 WSW 6 7 3 4 1009.7 1009.6 0.0
20/01:30am 24.7 29.0 21.2 81 2.3 CALM 0 0 0 0 1009.8 1009.7 0.0
20/01:00am 25.2 29.0 21.7 81 2.3 NNW 4 4 2 2 1010.1 1010.0 0.0
20/12:30am 24.8 28.3 21.1 80 2.4 N 4 6 2 3 1010.2 1010.1 0.0
20/12:00am 25.1 28.8 21.4 80 2.5 N 4 4 2 2 1010.4 1010.3 0.0
 
Date/Time
CST
Temp
°C
App
Temp
°C
Dew
Point
Rel
Hum
%
Delta-T
°C
Wind Press
QNH
hPa
Press
MSL
hPa
Rain
since 9 am
mm
Dir
 
Spd
km/h
Gust
km/h
Spd
kts
Gust
kts
19/11:30pm 25.4 29.9 21.5 79 2.6 CALM 0 6 0 3 1010.4 1010.3 0.0
19/11:00pm 25.4 29.6 20.9 76 3.0 CALM 0 0 0 0 1010.5 1010.4 0.0
19/10:30pm 26.2 30.1 21.2 74 3.3 S 2 4 1 2 1010.7 1010.6 0.0
19/10:00pm 26.7 30.0 21.5 73 3.5 SSW 6 7 3 4 1011.2 1011.0 0.0
19/09:30pm 26.4 29.4 20.9 72 3.6 NW 6 7 3 4 1010.6 1010.5 0.0
19/09:00pm 26.9 29.8 20.7 69 4.1 NW 6 7 3 4 1010.1 1010.0 0.0
19/08:30pm 27.1 29.9 20.4 66 4.4 N 6 7 3 4 1009.3 1009.2 0.0
19/08:00pm 28.8 31.0 20.3 60 5.6 N 9 13 5 7 1009.3 1009.2 0.0
19/07:30pm 29.8 30.9 20.4 57 6.2 N 15 20 8 11 1008.8 1008.7 0.0
19/07:00pm 30.6 31.3 19.6 51 7.2 N 15 24 8 13 1008.6 1008.5 0.0
19/06:30pm 32.0 31.4 18.9 45 8.6 NNE 20 28 11 15 1008.2 1008.1 0.0
19/06:00pm 33.0 31.6 18.7 42 9.3 N 24 30 13 16 1007.9 1007.8 0.0
19/05:30pm 34.1 33.4 18.6 40 10.1 N 20 30 11 16 1007.6 1007.5 0.0
19/05:00pm 35.2 34.9 19.1 38 10.6 N 19 26 10 14 1007.5 1007.4 0.0
19/04:30pm 35.6 35.3 19.1 38 10.9 NNE 19 28 10 15 1007.8 1007.7 0.0
19/04:00pm 36.1 35.8 19.5 37 11.0 N 20 28 11 15 1007.9 1007.8 0.0
19/03:30pm 36.6 36.1 18.6 34 11.9 N 19 26 10 14 1008.1 1008.0 0.0
19/03:00pm 36.6 37.7 17.2 31 12.5 NNE 7 19 4 10 1008.4 1008.3 0.0
19/02:30pm 37.1 37.4 17.1 30 12.9 E 11 19 6 10 1009.0 1008.9 0.0
19/02:00pm 36.0 37.1 18.1 34 11.7 WNW 9 19 5 10 1009.4 1009.3 0.0
19/01:30pm 36.8 38.6 18.8 34 11.9 WNW 7 30 4 16 1009.8 1009.7 0.0
19/01:00pm 35.0 36.7 19.4 40 10.3 N 9 24 5 13 1010.5 1010.4 0.0
19/12:30pm 36.4 38.1 20.2 38 10.9 N 11 24 6 13 1011.0 1010.8 0.0
19/12:00pm 33.5 35.0 20.6 46 8.6 NNW 13 22 7 12 1011.7 1011.5 0.0
19/11:30am 33.5 34.9 21.0 48 8.4 NW 15 22 8 12 1012.0 1011.8 0.0
19/11:00am 33.9 36.9 22.0 49 8.1 NNW 9 19 5 10 1012.6 1012.4 0.0
19/10:30am 31.8 34.5 21.3 53 7.1 NNW 9 17 5 9 1013.1 1012.9 0.0
19/10:00am 32.6 35.7 21.5 52 7.5 NW 7 17 4 9 1013.5 1013.3 0.0
19/09:30am 31.6 34.6 22.0 56 6.5 N 9 15 5 8 1013.7 1013.5 0.0
19/09:00am 30.8 34.9 22.9 62 5.4 NE 6 11 3 6 1014.0 1013.8 0.0
19/08:30am 29.4 33.4 23.1 69 4.3 NE 7 9 4 5 1013.8 1013.6 0.0
19/08:00am 28.0 32.2 23.2 75 3.3 ENE 6 7 3 4 1013.6 1013.4 0.0
19/07:30am 26.5 31.1 23.2 82 2.2 E 4 6 2 3 1012.9 1012.7 0.0
19/07:00am 24.5 29.3 22.9 91 1.1 N 2 4 1 2 1012.2 1012.0 0.0
19/06:30am 22.7 26.9 21.0 90 1.1 CALM 0 0 0 0 1011.9 1011.7 0.0
19/06:00am 23.1 27.1 21.4 90 1.1 N 2 4 1 2 1011.6 1011.4 0.0
19/05:30am 23.3 26.5 21.7 91 1.1 N 7 7 4 4 1011.1 1010.9 0.0
19/05:00am 22.9 26.2 21.4 91 1.0 NNE 6 7 3 4 1010.7 1010.6 0.0
19/04:30am 22.9 26.0 21.0 89 1.2 NNE 6 7 3 4 1010.5 1010.4 0.0
19/04:00am 23.8 27.2 21.7 88 1.4 N 6 7 3 4 1010.3 1010.2 0.0
19/03:30am 23.8 27.6 21.7 88 1.4 N 4 4 2 2 1010.1 1010.0 0.0
19/03:00am 24.4 29.2 22.1 87 1.5 CALM 0 0 0 0 1009.9 1009.8 0.0
19/02:30am 24.4 29.3 22.3 88 1.4 CALM 0 2 0 1 1009.9 1009.8 0.0
19/02:00am 23.7 27.8 21.6 88 1.4 N 2 4 1 2 1010.2 1010.1 0.0
19/01:30am 24.7 29.5 22.2 86 1.7 CALM 0 0 0 0 1010.6 1010.5 0.0
19/01:00am 24.5 29.2 22.0 86 1.7 CALM 0 0 0 0 1011.1 1010.9 0.0
19/12:30am 24.6 29.2 21.7 84 1.9 CALM 0 0 0 0 1011.6 1011.4 0.0
19/12:00am 24.9 29.4 21.6 82 2.2 CALM 0 0 0 0 1011.8 1011.6 0.0
 
Date/Time
CST
Temp
°C
App
Temp
°C
Dew
Point
Rel
Hum
%
Delta-T
°C
Wind Press
QNH
hPa
Press
MSL
hPa
Rain
since 9 am
mm
Dir
 
Spd
km/h
Gust
km/h
Spd
kts
Gust
kts
18/11:30pm 25.3 29.5 21.8 81 2.3 N 2 2 1 1 1012.0 1011.8 0.0
18/11:00pm 25.7 29.6 21.8 79 2.6 N 4 6 2 3 1012.0 1011.8 0.0
18/10:30pm 26.1 29.6 22.2 79 2.6 N 7 7 4 4 1011.9 1011.7 0.0
18/10:00pm 26.5 30.0 21.9 76 3.1 N 6 7 3 4 1012.0 1011.8 0.0
18/09:30pm 26.9 30.3 21.6 72 3.5 N 6 7 3 4 1011.7 1011.5 0.0
18/09:00pm 27.2 30.2 21.2 69 4.0 N 7 7 4 4 1011.3 1011.1 0.0
18/08:30pm 28.5 31.0 21.0 64 5.0 NNW 9 11 5 6 1010.9 1010.7 0.0
18/08:00pm 29.3 30.9 20.7 59 5.7 NW 13 17 7 9 1010.5 1010.4 0.0
18/07:30pm 29.6 31.3 18.4 51 7.2 NNW 7 11 4 6 1009.9 1009.8 0.0
18/07:00pm 31.1 30.7 16.3 41 9.3 N 13 17 7 9 1009.5 1009.4 0.0
18/06:30pm 32.8 31.5 11.3 27 12.6 N 9 13 5 7 1009.3 1009.2 0.0
18/06:00pm 34.2 30.9 9.4 22 14.2 N 17 24 9 13 1009.0 1008.9 0.0
18/05:30pm 35.4 31.4 9.0 20 15.1 N 20 30 11 16 1008.7 1008.6 0.0
18/05:00pm 36.1 31.5 8.0 18 15.8 N 22 32 12 17 1008.3 1008.2 0.0
18/04:30pm 37.2 33.0 8.1 17 16.5 N 20 26 11 14 1008.1 1008.0 0.0
18/04:00pm 37.3 32.7 6.3 15 17.1 N 20 28 11 15 1008.2 1008.1 0.0
18/03:30pm 37.7 33.8 8.5 17 16.7 N 19 32 10 17 1008.3 1008.2 0.0
18/03:00pm 38.5 35.2 10.8 19 16.5 N 19 28 10 15 1008.3 1008.2 0.0
18/02:30pm 37.9 35.3 13.2 23 15.2 N 19 28 10 15 1008.4 1008.3 0.0

Other Formats:

Comma delimited format used in spreadsheet applications
http://www.bom.gov.au/fwo/IDD60801/IDD60801.95121.axf

JavaScript Object Notation format (JSON) in row-major order
http://www.bom.gov.au/fwo/IDD60801/IDD60801.95121.json